NORTHERN NASSAU  -  Areal Flood Advisory Areal Flood Advisory     Flash Flood Watch Flash Flood Watch     Rip Current Statement Rip Current Statement        NORTHERN QUEENS  -  Areal Flood Advisory Areal Flood Advisory     Flash Flood Watch Flash Flood Watch     Rip Current Statement Rip Current Statement        SOUTHERN NASSAU  -  Areal Flood Advisory Areal Flood Advisory     Flash Flood Watch Flash Flood Watch     Rip Current Statement Rip Current Statement        SOUTHERN QUEENS  -  Areal Flood Advisory Areal Flood Advisory     Flash Flood Watch Flash Flood Watch     Rip Current Statement Rip Current Statement        NORTHEAST SUFFOLK  -  Rip Current Statement Rip Current Statement        NORTHWEST SUFFOLK  -  Rip Current Statement Rip Current Statement        SOUTHEAST SUFFOLK  -  Rip Current Statement Rip Current Statement        SOUTHWEST SUFFOLK  -  Rip Current Statement Rip Current Statement      

Active alerts

Northern Queens
  Details for Northern Queens Areal Flood Advisory  +2 additional alerts
Southern Queens
  Details for Southern Queens Areal Flood Advisory  +2 additional alerts
Northern Nassau
  Details for Northern Nassau Areal Flood Advisory  +2 additional alerts
Southern Nassau
  Details for Southern Nassau Areal Flood Advisory  +2 additional alerts
Northwest Suffolk
  Details for Northwest Suffolk Rip Current Statement
Southwest Suffolk
  Details for Southwest Suffolk Rip Current Statement
Northeast Suffolk
  Details for Northeast Suffolk Rip Current Statement
Southeast Suffolk
  Details for Southeast Suffolk Rip Current Statement


WXM80 ListenWXM80 Stop

You find our weather info also at:

UK Metoffice

WeatherCloud

Weather Underground

Northeastern Weather Network

AWEKAS

Citizen Weather Observer Program (CWOP)

HAMweather, WeatherForYou, PWS Weather


Weather Underground History page Text

Daily Summary for February 4, 2017 Units:  English    Metric   Both
« Previous Day
Next Day »
Daily Weekly Monthly Yearly Custom
  High: Low: Average:
Temperature: 33.9 °F 22.8 °F 28.5 °F
Dew Point: 16.2 °F 10.3 °F 12.8 °F
Humidity: 63 % 41 % 52 %
Wind Speed: 12.3 mph 0.0 mph 5.3 mph
Wind Gust: 21.9 mph - -
Wind:- - West
Pressure: 30.35 in 30.18 in -
Precipitation: 0.00 in    
Historical Graphs
 
 
Tabular Data for February 4, 2017
Time Temperature Dew Point Pressure Wind Wind Speed Wind Gust Humidity Rainfall Rate (Hourly)
00:01 27.6 °F 12.7 °F 30.18 in North 8.0 mph 12.7 mph 53 % 0.00 in
00:06 27.4 °F 12.9 °F 30.18 in NW 9.1 mph 21.9 mph 54 % 0.00 in
00:11 27.3 °F 12.8 °F 30.18 in WNW 8.1 mph 15.0 mph 54 % 0.00 in
00:16 27.1 °F 13.5 °F 30.18 in NW 8.5 mph 16.1 mph 56 % 0.00 in
00:21 27.0 °F 13.0 °F 30.18 in North 3.8 mph 16.1 mph 55 % 0.00 in
00:26 26.9 °F 12.5 °F 30.18 in WNW 8.7 mph 20.7 mph 54 % 0.00 in
00:31 26.7 °F 12.3 °F 30.18 in NW 4.6 mph 11.5 mph 54 % 0.00 in
00:36 26.5 °F 12.1 °F 30.18 in WNW 9.0 mph 18.4 mph 54 % 0.00 in
00:41 26.3 °F 12.3 °F 30.18 in West 5.4 mph 12.7 mph 55 % 0.00 in
00:46 26.2 °F 12.2 °F 30.18 in NW 7.0 mph 13.8 mph 55 % 0.00 in
00:52 26.0 °F 12.0 °F 30.19 in NNE 5.1 mph 19.6 mph 55 % 0.00 in
00:57 25.9 °F 11.9 °F 30.19 in NNW 8.3 mph 15.0 mph 55 % 0.00 in
01:02 25.8 °F 12.6 °F 30.20 in NNW 5.0 mph 14.0 mph 57 % 0.00 in
01:07 25.7 °F 12.2 °F 30.20 in NW 5.2 mph 11.5 mph 56 % 0.00 in
01:12 25.7 °F 12.2 °F 30.20 in NW 4.9 mph 11.5 mph 56 % 0.00 in
01:17 25.6 °F 12.9 °F 30.20 in West 3.9 mph 8.0 mph 58 % 0.00 in
01:22 25.6 °F 12.9 °F 30.19 in West 4.7 mph 10.4 mph 58 % 0.00 in
01:27 25.4 °F 11.9 °F 30.19 in NW 7.2 mph 11.5 mph 56 % 0.00 in
01:32 25.4 °F 11.5 °F 30.20 in NW 8.9 mph 16.1 mph 55 % 0.00 in
01:37 25.3 °F 12.6 °F 30.20 in NW 9.6 mph 15.0 mph 58 % 0.00 in
01:42 25.2 °F 11.7 °F 30.19 in WNW 9.3 mph 15.0 mph 56 % 0.00 in
01:47 25.2 °F 12.1 °F 30.20 in NNW 7.6 mph 11.5 mph 57 % 0.00 in
01:52 25.1 °F 11.2 °F 30.20 in WNW 8.4 mph 17.0 mph 55 % 0.00 in
01:57 25.1 °F 11.6 °F 30.21 in NW 8.6 mph 15.0 mph 56 % 0.00 in
02:02 25.0 °F 11.5 °F 30.21 in NNW 7.4 mph 12.7 mph 56 % 0.00 in
02:07 24.9 °F 11.4 °F 30.21 in NW 8.0 mph 12.0 mph 56 % 0.00 in
02:12 24.9 °F 11.8 °F 30.22 in NNW 6.4 mph 12.7 mph 57 % 0.00 in
02:17 24.8 °F 11.3 °F 30.22 in NNW 7.7 mph 10.0 mph 56 % 0.00 in
02:22 24.7 °F 11.2 °F 30.21 in NW 7.5 mph 11.5 mph 56 % 0.00 in
02:27 24.6 °F 11.1 °F 30.21 in NW 8.0 mph 13.0 mph 56 % 0.00 in
02:33 24.6 °F 11.5 °F 30.21 in WNW 5.0 mph 17.3 mph 57 % 0.00 in
02:38 24.5 °F 11.0 °F 30.21 in NW 7.1 mph 16.1 mph 56 % 0.00 in
02:43 24.5 °F 11.0 °F 30.22 in NW 7.7 mph 16.1 mph 56 % 0.00 in
02:48 24.5 °F 11.0 °F 30.22 in SW 9.4 mph 17.3 mph 56 % 0.00 in
02:53 24.4 °F 10.9 °F 30.22 in WNW 6.8 mph 11.5 mph 56 % 0.00 in
02:58 24.4 °F 11.3 °F 30.22 in WNW 6.9 mph 11.5 mph 57 % 0.00 in
03:03 24.3 °F 10.4 °F 30.22 in NW 5.4 mph 9.2 mph 55 % 0.00 in
03:08 24.2 °F 10.7 °F 30.22 in West 6.5 mph 19.0 mph 56 % 0.00 in
03:13 24.1 °F 10.6 °F 30.22 in WNW 6.3 mph 11.5 mph 56 % 0.00 in
03:18 24.0 °F 10.6 °F 30.22 in NW 7.4 mph 18.4 mph 56 % 0.00 in
03:23 24.0 °F 11.3 °F 30.22 in West 7.3 mph 16.0 mph 58 % 0.00 in
03:28 24.0 °F 10.6 °F 30.23 in WNW 9.7 mph 17.3 mph 56 % 0.00 in
03:33 23.9 °F 10.9 °F 30.23 in WNW 6.5 mph 15.0 mph 57 % 0.00 in
03:38 23.8 °F 10.4 °F 30.23 in WNW 9.3 mph 17.0 mph 56 % 0.00 in
03:43 23.7 °F 10.3 °F 30.23 in NW 8.8 mph 18.4 mph 56 % 0.00 in
03:48 23.7 °F 11.1 °F 30.23 in NW 5.0 mph 11.5 mph 58 % 0.00 in
03:53 23.6 °F 11.0 °F 30.23 in NW 9.2 mph 12.7 mph 58 % 0.00 in
03:58 23.6 °F 11.4 °F 30.24 in NW 8.6 mph 16.1 mph 59 % 0.00 in
04:03 23.6 °F 10.6 °F 30.24 in WNW 10.9 mph 17.3 mph 57 % 0.00 in
04:08 23.5 °F 11.3 °F 30.25 in WNW 6.5 mph 11.5 mph 59 % 0.00 in
04:13 23.5 °F 11.3 °F 30.25 in NW 9.8 mph 11.5 mph 59 % 0.00 in
04:18 23.5 °F 11.3 °F 30.25 in NW 5.9 mph 14.0 mph 59 % 0.00 in
04:23 23.5 °F 11.6 °F 30.25 in NW 6.7 mph 10.4 mph 60 % 0.00 in
04:28 23.5 °F 11.3 °F 30.25 in West 6.0 mph 15.0 mph 59 % 0.00 in
04:33 23.5 °F 11.2 °F 30.25 in WNW 6.0 mph 14.0 mph 59 % 0.00 in
04:38 23.4 °F 11.2 °F 30.25 in NW 9.2 mph 13.8 mph 59 % 0.00 in
04:43 23.4 °F 11.2 °F 30.26 in WNW 9.0 mph 20.0 mph 59 % 0.00 in
04:48 23.4 °F 11.5 °F 30.26 in WNW 10.0 mph 16.0 mph 60 % 0.00 in
04:53 23.4 °F 11.2 °F 30.26 in West 9.0 mph 17.0 mph 59 % 0.00 in
04:58 23.4 °F 11.2 °F 30.26 in WNW 6.8 mph 12.0 mph 59 % 0.00 in
05:03 23.3 °F 10.7 °F 30.27 in WNW 6.0 mph 14.0 mph 58 % 0.00 in
05:08 23.3 °F 11.1 °F 30.27 in WNW 8.0 mph 15.0 mph 59 % 0.00 in
05:13 23.2 °F 11.0 °F 30.27 in WNW 5.0 mph 15.0 mph 59 % 0.00 in
05:18 23.2 °F 11.7 °F 30.27 in West 6.1 mph 8.1 mph 61 % 0.00 in
05:23 23.1 °F 11.3 °F 30.27 in WNW 5.0 mph 10.0 mph 60 % 0.00 in
05:28 23.1 °F 11.6 °F 30.27 in WNW 8.0 mph 15.0 mph 61 % 0.00 in
05:33 23.1 °F 11.6 °F 30.28 in West 8.0 mph 20.0 mph 61 % 0.00 in
05:38 23.1 °F 11.3 °F 30.27 in WNW 7.0 mph 16.0 mph 60 % 0.00 in
05:43 23.1 °F 11.3 °F 30.28 in WNW 5.0 mph 17.0 mph 60 % 0.00 in
05:48 23.1 °F 11.3 °F 30.28 in WNW 10.0 mph 20.0 mph 60 % 0.00 in
05:53 23.1 °F 11.3 °F 30.29 in WSW 5.8 mph 15.0 mph 60 % 0.00 in
05:58 23.0 °F 11.2 °F 30.28 in West 5.7 mph 11.5 mph 60 % 0.00 in
06:03 23.0 °F 11.2 °F 30.28 in West 6.0 mph 12.0 mph 60 % 0.00 in
06:08 22.9 °F 11.4 °F 30.28 in West 6.0 mph 11.0 mph 61 % 0.00 in
06:13 22.9 °F 11.1 °F 30.29 in WSW 5.7 mph 11.0 mph 60 % 0.00 in
06:18 22.8 °F 11.3 °F 30.29 in West 9.0 mph 16.0 mph 61 % 0.00 in
06:23 22.8 °F 11.3 °F 30.29 in WNW 8.0 mph 16.0 mph 61 % 0.00 in
06:28 22.8 °F 11.3 °F 30.30 in West 6.0 mph 14.0 mph 61 % 0.00 in
06:33 22.8 °F 11.3 °F 30.30 in SW 4.4 mph 10.4 mph 61 % 0.00 in
06:38 22.8 °F 11.4 °F 30.30 in WNW 8.0 mph 20.0 mph 61 % 0.00 in
06:43 22.9 °F 11.8 °F 30.30 in WNW 6.0 mph 14.0 mph 62 % 0.00 in
06:48 22.9 °F 11.8 °F 30.31 in WNW 7.0 mph 13.0 mph 62 % 0.00 in
06:53 22.9 °F 11.8 °F 30.30 in WNW 7.0 mph 7.0 mph 62 % 0.00 in
06:58 22.9 °F 11.8 °F 30.31 in WSW 4.1 mph 9.2 mph 62 % 0.00 in
07:03 22.9 °F 11.8 °F 30.31 in NNW 7.3 mph 14.0 mph 62 % 0.00 in
07:08 22.9 °F 12.2 °F 30.31 in WNW 7.9 mph 10.0 mph 63 % 0.00 in
07:14 22.9 °F 11.8 °F 30.32 in WNW 7.0 mph 14.0 mph 62 % 0.00 in
07:19 23.0 °F 12.3 °F 30.32 in WSW 8.8 mph 13.8 mph 63 % 0.00 in
07:24 23.1 °F 12.0 °F 30.32 in WNW 7.5 mph 12.7 mph 62 % 0.00 in
07:29 23.1 °F 12.4 °F 30.31 in West 5.0 mph 13.8 mph 63 % 0.00 in
07:34 23.2 °F 12.1 °F 30.31 in WNW 4.4 mph 8.1 mph 62 % 0.00 in
07:39 23.2 °F 12.1 °F 30.32 in WSW 4.5 mph 10.4 mph 62 % 0.00 in
07:44 23.3 °F 12.2 °F 30.32 in West 8.6 mph 11.5 mph 62 % 0.00 in
07:49 23.4 °F 12.3 °F 30.32 in West 7.9 mph 11.5 mph 62 % 0.00 in
07:54 23.4 °F 12.3 °F 30.32 in NW 5.7 mph 10.4 mph 62 % 0.00 in
07:59 23.5 °F 12.4 °F 30.32 in WNW 3.8 mph 8.1 mph 62 % 0.00 in
08:04 23.6 °F 12.8 °F 30.33 in West 6.9 mph 15.0 mph 63 % 0.00 in
08:09 23.7 °F 12.9 °F 30.32 in West 5.3 mph 12.0 mph 63 % 0.00 in
08:14 23.9 °F 13.1 °F 30.32 in NW 5.4 mph 11.5 mph 63 % 0.00 in
08:19 24.1 °F 12.9 °F 30.33 in WNW 7.7 mph 15.0 mph 62 % 0.00 in
08:24 24.3 °F 13.1 °F 30.33 in WNW 7.8 mph 8.1 mph 62 % 0.00 in
08:29 24.5 °F 13.7 °F 30.33 in West 5.7 mph 14.0 mph 63 % 0.00 in
08:34 24.7 °F 13.5 °F 30.34 in NW 8.4 mph 16.1 mph 62 % 0.00 in
08:39 24.8 °F 13.6 °F 30.34 in WSW 11.3 mph 18.4 mph 62 % 0.00 in
08:44 24.9 °F 13.3 °F 30.34 in WNW 7.8 mph 15.0 mph 61 % 0.00 in
08:49 25.1 °F 13.2 °F 30.34 in West 7.4 mph 19.6 mph 60 % 0.00 in
08:54 25.4 °F 13.8 °F 30.34 in West 5.2 mph 11.5 mph 61 % 0.00 in
08:59 25.6 °F 13.6 °F 30.34 in NW 6.2 mph 11.5 mph 60 % 0.00 in
09:04 26.0 °F 14.0 °F 30.34 in West 4.0 mph 8.1 mph 60 % 0.00 in
09:09 26.2 °F 13.4 °F 30.34 in NNW 5.9 mph 12.7 mph 58 % 0.00 in
09:15 26.3 °F 13.9 °F 30.34 in West 4.0 mph 10.4 mph 59 % 0.00 in
09:20 26.6 °F 13.8 °F 30.34 in WSW 12.3 mph 18.4 mph 58 % 0.00 in
09:25 26.6 °F 13.4 °F 30.35 in NW 8.7 mph 17.3 mph 57 % 0.00 in
09:30 26.6 °F 13.4 °F 30.34 in WNW 5.2 mph 15.0 mph 57 % 0.00 in
09:35 26.7 °F 13.5 °F 30.34 in NW 6.0 mph 10.4 mph 57 % 0.00 in
09:40 26.9 °F 13.7 °F 30.34 in WSW 3.8 mph 7.0 mph 57 % 0.00 in
09:45 27.0 °F 13.4 °F 30.34 in WNW 8.9 mph 16.1 mph 56 % 0.00 in
09:50 27.3 °F 13.7 °F 30.34 in SW 3.9 mph 11.0 mph 56 % 0.00 in
09:55 27.7 °F 14.0 °F 30.34 in WSW 7.3 mph 12.7 mph 56 % 0.00 in
10:00 28.1 °F 14.0 °F 30.35 in WSW 5.1 mph 16.1 mph 55 % 0.00 in
10:05 28.3 °F 14.2 °F 30.35 in West 9.6 mph 15.0 mph 55 % 0.00 in
10:10 28.5 °F 13.9 °F 30.34 in NW 7.7 mph 15.0 mph 54 % 0.00 in
10:15 28.5 °F 13.9 °F 30.34 in WNW 6.2 mph 11.5 mph 54 % 0.00 in
10:20 28.7 °F 14.1 °F 30.34 in WSW 4.4 mph 6.9 mph 54 % 0.00 in
10:25 29.2 °F 14.6 °F 30.34 in WNW 7.4 mph 18.0 mph 54 % 0.00 in
10:30 29.2 °F 14.2 °F 30.34 in WNW 3.4 mph 8.1 mph 53 % 0.00 in
10:35 29.2 °F 13.7 °F 30.34 in WSW 8.8 mph 15.0 mph 52 % 0.00 in
10:40 29.4 °F 13.9 °F 30.34 in WSW 5.9 mph 16.1 mph 52 % 0.00 in
10:45 29.7 °F 14.6 °F 30.34 in WNW 6.8 mph 11.5 mph 53 % 0.00 in
10:50 30.0 °F 14.9 °F 30.34 in WSW 5.5 mph 9.0 mph 53 % 0.00 in
10:55 30.2 °F 14.2 °F 30.34 in SW 6.7 mph 12.0 mph 51 % 0.00 in
11:01 30.3 °F 13.9 °F 30.34 in WNW 10.3 mph 12.7 mph 50 % 0.00 in
11:06 30.2 °F 14.2 °F 30.34 in West 4.6 mph 9.2 mph 51 % 0.00 in
11:11 30.4 °F 14.4 °F 30.34 in West 5.8 mph 11.5 mph 51 % 0.00 in
11:16 30.4 °F 13.5 °F 30.34 in West 5.5 mph 11.5 mph 49 % 0.00 in
11:21 30.4 °F 13.5 °F 30.34 in NW 5.7 mph 11.5 mph 49 % 0.00 in
11:26 30.3 °F 13.4 °F 30.33 in West 7.2 mph 11.5 mph 49 % 0.00 in
11:31 30.5 °F 14.5 °F 30.33 in West 4.7 mph 9.2 mph 51 % 0.00 in
11:36 30.8 °F 14.8 °F 30.33 in NW 6.9 mph 10.4 mph 51 % 0.00 in
11:41 30.9 °F 14.4 °F 30.33 in West 6.9 mph 11.0 mph 50 % 0.00 in
11:46 31.0 °F 14.5 °F 30.32 in WNW 6.8 mph 10.4 mph 50 % 0.00 in
11:51 30.8 °F 13.9 °F 30.32 in West 8.8 mph 16.1 mph 49 % 0.00 in
11:56 30.6 °F 13.2 °F 30.32 in NW 5.5 mph 11.5 mph 48 % 0.00 in
12:01 30.6 °F 13.7 °F 30.32 in NW 4.9 mph 10.4 mph 49 % 0.00 in
12:02 30.5 °F 13.6 °F 30.32 in WSW 6.0 mph 8.0 mph 49 % 0.00 in
12:07 30.6 °F 14.1 °F 30.31 in SW 6.0 mph 7.0 mph 50 % 0.00 in
12:12 30.8 °F 13.9 °F 30.31 in WNW 9.0 mph 13.0 mph 49 % 0.00 in
12:18 30.9 °F 14.0 °F 30.31 in WSW 6.7 mph 11.5 mph 49 % 0.00 in
12:23 31.0 °F 14.0 °F 30.31 in WNW 4.0 mph 9.2 mph 49 % 0.00 in
12:28 31.1 °F 13.2 °F 30.31 in WSW 5.4 mph 11.5 mph 47 % 0.00 in
12:33 31.4 °F 13.9 °F 30.31 in WNW 5.0 mph 11.5 mph 48 % 0.00 in
12:38 31.6 °F 14.6 °F 30.30 in West 6.2 mph 13.8 mph 49 % 0.00 in
12:43 32.0 °F 15.0 °F 30.31 in West 7.0 mph 11.5 mph 49 % 0.00 in
12:48 32.1 °F 14.6 °F 30.30 in WNW 4.7 mph 9.2 mph 48 % 0.00 in
12:53 32.2 °F 14.7 °F 30.30 in SW 7.2 mph 13.8 mph 48 % 0.00 in
12:58 32.4 °F 14.4 °F 30.30 in WSW 7.7 mph 11.5 mph 47 % 0.00 in
13:03 32.3 °F 13.8 °F 30.30 in West 8.3 mph 13.0 mph 46 % 0.00 in
13:08 32.5 °F 14.5 °F 30.29 in SSW 6.0 mph 10.4 mph 47 % 0.00 in
13:13 32.7 °F 14.2 °F 30.29 in SW 7.1 mph 11.5 mph 46 % 0.00 in
13:18 33.0 °F 14.4 °F 30.29 in SW 6.9 mph 11.5 mph 46 % 0.00 in
13:23 33.3 °F 14.7 °F 30.29 in WSW 4.2 mph 8.1 mph 46 % 0.00 in
13:28 33.7 °F 15.1 °F 30.29 in West 5.3 mph 6.9 mph 46 % 0.00 in
13:33 33.9 °F 14.8 °F 30.27 in WNW 5.7 mph 8.1 mph 45 % 0.00 in
13:38 33.8 °F 14.2 °F 30.27 in West 7.0 mph 10.4 mph 44 % 0.00 in
13:43 33.7 °F 14.1 °F 30.28 in NW 4.4 mph 9.2 mph 44 % 0.00 in
13:48 33.7 °F 13.5 °F 30.27 in West 2.9 mph 9.2 mph 43 % 0.00 in
13:53 33.7 °F 13.5 °F 30.27 in WSW 4.1 mph 11.5 mph 43 % 0.00 in
13:58 33.5 °F 13.9 °F 30.27 in SSW 2.7 mph 11.5 mph 44 % 0.00 in
14:03 33.7 °F 14.0 °F 30.27 in WSW 8.0 mph 14.0 mph 44 % 0.00 in
14:08 33.7 °F 14.1 °F 30.27 in WSW 3.0 mph 12.0 mph 44 % 0.00 in
14:13 33.7 °F 14.1 °F 30.26 in WSW 5.0 mph 9.0 mph 44 % 0.00 in
14:18 33.8 °F 14.2 °F 30.26 in SW 4.5 mph 6.0 mph 44 % 0.00 in
14:23 33.9 °F 13.2 °F 30.26 in WSW 3.0 mph 12.0 mph 42 % 0.00 in
14:28 33.9 °F 13.7 °F 30.26 in WSW 3.0 mph 12.0 mph 43 % 0.00 in
14:33 33.9 °F 13.2 °F 30.26 in WSW 3.0 mph 12.0 mph 42 % 0.00 in
14:38 33.7 °F 13.0 °F 30.26 in West 4.9 mph 10.4 mph 42 % 0.00 in
14:43 33.5 °F 12.8 °F 30.26 in WSW 6.0 mph 13.0 mph 42 % 0.00 in
14:48 33.4 °F 13.3 °F 30.26 in SW 5.0 mph 10.0 mph 43 % 0.00 in
14:53 33.4 °F 13.2 °F 30.26 in SW 6.0 mph 13.0 mph 43 % 0.00 in
14:58 33.2 °F 12.6 °F 30.26 in SW 5.5 mph 12.7 mph 42 % 0.00 in
15:03 33.2 °F 12.5 °F 30.26 in WSW 6.0 mph 13.0 mph 42 % 0.00 in
15:08 33.1 °F 13.0 °F 30.27 in WSW 6.0 mph 10.0 mph 43 % 0.00 in
15:13 33.2 °F 13.1 °F 30.27 in WSW 7.0 mph 13.0 mph 43 % 0.00 in
15:18 33.2 °F 12.6 °F 30.27 in West 7.4 mph 13.0 mph 42 % 0.00 in
15:23 33.2 °F 12.6 °F 30.27 in WSW 6.0 mph 14.0 mph 42 % 0.00 in
15:28 33.2 °F 13.1 °F 30.27 in SW 6.0 mph 12.0 mph 43 % 0.00 in
15:33 33.2 °F 12.6 °F 30.26 in WSW 7.0 mph 13.0 mph 42 % 0.00 in
15:35 33.2 °F 13.1 °F 30.26 in WSW 5.4 mph 10.0 mph 43 % 0.00 in
15:40 33.3 °F 13.2 °F 30.26 in SSW 3.9 mph 15.0 mph 43 % 0.00 in
15:45 33.3 °F 12.6 °F 30.26 in SW 4.5 mph 13.8 mph 42 % 0.00 in
15:50 33.4 °F 12.7 °F 30.26 in SW 7.5 mph 10.0 mph 42 % 0.00 in
15:55 33.4 °F 12.7 °F 30.26 in WSW 5.2 mph 9.2 mph 42 % 0.00 in
16:01 33.4 °F 12.7 °F 30.26 in West 8.4 mph 12.0 mph 42 % 0.00 in
16:06 33.5 °F 12.3 °F 30.26 in WSW 8.4 mph 11.5 mph 41 % 0.00 in
16:11 33.5 °F 12.3 °F 30.26 in SSW 3.8 mph 11.5 mph 41 % 0.00 in
16:16 33.5 °F 12.8 °F 30.25 in WSW 7.4 mph 11.5 mph 42 % 0.00 in
16:21 33.4 °F 12.7 °F 30.25 in SW 4.1 mph 11.5 mph 42 % 0.00 in
16:26 33.4 °F 12.7 °F 30.25 in SW 5.2 mph 9.2 mph 42 % 0.00 in
16:31 33.3 °F 12.6 °F 30.26 in WSW 5.0 mph 9.0 mph 42 % 0.00 in
16:33 33.3 °F 12.6 °F 30.25 in SW 3.3 mph 11.5 mph 42 % 0.00 in
16:38 33.2 °F 12.6 °F 30.26 in SW 6.6 mph 11.5 mph 42 % 0.00 in
16:43 33.1 °F 12.5 °F 30.26 in WSW 7.6 mph 10.4 mph 42 % 0.00 in
16:48 33.0 °F 12.4 °F 30.26 in WSW 4.9 mph 9.0 mph 42 % 0.00 in
16:53 33.0 °F 11.8 °F 30.26 in WSW 5.9 mph 10.4 mph 41 % 0.00 in
16:58 32.9 °F 12.3 °F 30.27 in SW 4.3 mph 10.4 mph 42 % 0.00 in
17:03 32.8 °F 12.2 °F 30.27 in WSW 3.0 mph 10.0 mph 42 % 0.00 in
17:08 32.7 °F 12.6 °F 30.27 in WSW 2.0 mph 8.0 mph 43 % 0.00 in
17:13 32.6 °F 12.5 °F 30.26 in WSW 3.0 mph 8.0 mph 43 % 0.00 in
17:18 32.5 °F 12.4 °F 30.26 in WSW 3.0 mph 7.0 mph 43 % 0.00 in
17:23 32.4 °F 12.4 °F 30.26 in WSW 3.0 mph 6.0 mph 43 % 0.00 in
17:28 32.3 °F 12.8 °F 30.27 in WSW 7.0 mph 12.0 mph 44 % 0.00 in
17:33 32.4 °F 12.9 °F 30.26 in SW 1.0 mph 12.0 mph 44 % 0.00 in
17:38 32.4 °F 13.4 °F 30.27 in WSW 3.0 mph 8.0 mph 45 % 0.00 in
17:43 32.3 °F 13.3 °F 30.27 in WSW 2.0 mph 9.0 mph 45 % 0.00 in
17:48 32.3 °F 13.3 °F 30.27 in WSW 3.0 mph 6.0 mph 45 % 0.00 in
17:53 32.2 °F 13.2 °F 30.27 in WSW 2.0 mph 8.0 mph 45 % 0.00 in
17:58 32.2 °F 13.2 °F 30.27 in SSW 3.6 mph 8.1 mph 45 % 0.00 in
18:03 32.1 °F 13.1 °F 30.26 in SW 3.0 mph 8.0 mph 45 % 0.00 in
18:08 32.1 °F 13.1 °F 30.26 in Calm   2.0 mph 45 % 0.00 in
18:13 32.0 °F 13.0 °F 30.27 in SSW 2.0 mph 5.0 mph 45 % 0.00 in
18:18 31.9 °F 12.4 °F 30.27 in WSW 1.9 mph 6.9 mph 44 % 0.00 in
18:23 31.7 °F 12.8 °F 30.27 in SW 2.0 mph 5.0 mph 45 % 0.00 in
18:28 31.6 °F 12.7 °F 30.27 in WSW 2.0 mph 7.0 mph 45 % 0.00 in
18:33 31.4 °F 12.0 °F 30.26 in WSW 1.0 mph 7.0 mph 44 % 0.00 in
18:38 31.4 °F 12.0 °F 30.27 in WSW 1.0 mph 3.0 mph 44 % 0.00 in
18:43 31.2 °F 12.3 °F 30.27 in WSW 1.0 mph 4.0 mph 45 % 0.00 in
18:48 31.1 °F 12.2 °F 30.27 in SW 1.0 mph 2.0 mph 45 % 0.00 in
18:53 31.0 °F 12.1 °F 30.27 in Calm   2.0 mph 45 % 0.00 in
18:58 30.9 °F 12.5 °F 30.27 in South 0.8 mph 2.3 mph 46 % 0.00 in
19:03 30.7 °F 12.3 °F 30.27 in SW 2.0 mph 5.0 mph 46 % 0.00 in
19:08 30.5 °F 11.7 °F 30.27 in WSW 2.0 mph 4.0 mph 45 % 0.00 in
19:13 30.4 °F 12.1 °F 30.27 in WSW 2.0 mph 4.0 mph 46 % 0.00 in
19:18 30.2 °F 11.9 °F 30.27 in SW 3.0 mph 5.0 mph 46 % 0.00 in
19:23 30.1 °F 11.8 °F 30.26 in SW 3.0 mph 7.0 mph 46 % 0.00 in
19:28 30.0 °F 11.7 °F 30.26 in SW 2.0 mph 4.0 mph 46 % 0.00 in
19:33 30.0 °F 11.7 °F 30.27 in SW 3.4 mph 4.6 mph 46 % 0.00 in
19:38 30.0 °F 12.2 °F 30.27 in SW 3.0 mph 6.0 mph 47 % 0.00 in
19:43 30.0 °F 12.2 °F 30.27 in WSW 3.0 mph 7.0 mph 47 % 0.00 in
19:48 30.1 °F 11.7 °F 30.27 in WSW 2.0 mph 5.0 mph 46 % 0.00 in
19:53 30.1 °F 12.3 °F 30.27 in SSW 4.9 mph 5.0 mph 47 % 0.00 in
19:58 30.1 °F 12.3 °F 30.27 in SSW 2.3 mph 3.5 mph 47 % 0.00 in
20:03 30.1 °F 12.3 °F 30.27 in SW 3.0 mph 4.0 mph 47 % 0.00 in
20:09 30.2 °F 12.4 °F 30.26 in SW 1.6 mph 3.5 mph 47 % 0.00 in
20:14 30.2 °F 12.4 °F 30.26 in SW 3.9 mph 6.9 mph 47 % 0.00 in
20:19 30.2 °F 12.4 °F 30.26 in SW 2.5 mph 4.6 mph 47 % 0.00 in
20:24 30.2 °F 12.4 °F 30.26 in SSW 2.8 mph 5.8 mph 47 % 0.00 in
20:29 30.2 °F 12.4 °F 30.26 in WSW 1.5 mph 3.5 mph 47 % 0.00 in
20:34 30.2 °F 12.8 °F 30.26 in WSW 2.4 mph 4.0 mph 48 % 0.00 in
20:39 30.1 °F 12.7 °F 30.26 in SW 4.4 mph 8.0 mph 48 % 0.00 in
20:44 30.1 °F 12.7 °F 30.26 in SW 2.7 mph 4.6 mph 48 % 0.00 in
20:49 30.1 °F 12.7 °F 30.26 in SW 1.4 mph 3.5 mph 48 % 0.00 in
20:54 30.0 °F 12.7 °F 30.26 in SSW 2.5 mph 3.5 mph 48 % 0.00 in
20:59 30.0 °F 12.7 °F 30.26 in SW 3.1 mph 5.0 mph 48 % 0.00 in
21:04 29.9 °F 12.6 °F 30.27 in WSW 2.1 mph 3.5 mph 48 % 0.00 in
21:09 29.8 °F 12.5 °F 30.27 in SW 2.1 mph 5.8 mph 48 % 0.00 in
21:14 29.8 °F 12.5 °F 30.27 in WSW 1.8 mph 3.5 mph 48 % 0.00 in
21:19 29.7 °F 12.4 °F 30.27 in SW 1.6 mph 3.5 mph 48 % 0.00 in
21:24 29.6 °F 12.8 °F 30.27 in SW 0.9 mph 3.5 mph 49 % 0.00 in
21:29 29.6 °F 12.8 °F 30.27 in SW 1.2 mph 3.5 mph 49 % 0.00 in
21:34 29.5 °F 12.7 °F 30.27 in WSW 0.9 mph 3.5 mph 49 % 0.00 in
21:39 29.4 °F 12.6 °F 30.27 in SSW 1.6 mph 5.8 mph 49 % 0.00 in
21:44 29.4 °F 13.0 °F 30.27 in Calm   1.2 mph 50 % 0.00 in
21:49 29.3 °F 12.9 °F 30.27 in Calm   1.2 mph 50 % 0.00 in
21:54 29.2 °F 12.8 °F 30.27 in SSW 0.9 mph 2.0 mph 50 % 0.00 in
21:59 29.1 °F 13.2 °F 30.27 in SSW 0.3 mph 2.0 mph 51 % 0.00 in
22:05 29.1 °F 13.2 °F 30.26 in SSW 0.7 mph 3.5 mph 51 % 0.00 in
22:10 29.0 °F 13.1 °F 30.26 in SW 0.5 mph 2.3 mph 51 % 0.00 in
22:15 29.0 °F 13.6 °F 30.26 in SW 0.8 mph 2.3 mph 52 % 0.00 in
22:20 28.9 °F 13.5 °F 30.26 in SW 1.0 mph 2.3 mph 52 % 0.00 in
22:25 28.9 °F 13.9 °F 30.26 in WSW 3.6 mph 10.4 mph 53 % 0.00 in
22:30 29.0 °F 14.0 °F 30.26 in SW 1.0 mph 3.5 mph 53 % 0.00 in
22:35 29.2 °F 14.6 °F 30.26 in WSW 1.6 mph 6.9 mph 54 % 0.00 in
22:45 29.7 °F 15.5 °F 30.25 in WNW 1.6 mph 4.0 mph 55 % 0.00 in
22:50 30.2 °F 15.5 °F 30.25 in WSW 2.6 mph 3.5 mph 54 % 0.00 in
22:55 30.6 °F 15.5 °F 30.25 in WSW 2.5 mph 4.6 mph 53 % 0.00 in
23:00 30.8 °F 15.7 °F 30.25 in WSW 3.9 mph 8.1 mph 53 % 0.00 in
23:05 31.1 °F 15.5 °F 30.25 in SW 3.5 mph 6.9 mph 52 % 0.00 in
23:10 31.4 °F 15.8 °F 30.25 in WSW 2.3 mph 3.5 mph 52 % 0.00 in
23:15 31.4 °F 16.2 °F 30.25 in WSW 3.3 mph 8.1 mph 53 % 0.00 in
23:20 31.5 °F 15.9 °F 30.25 in West 3.7 mph 9.2 mph 52 % 0.00 in
23:25 31.6 °F 15.5 °F 30.25 in WSW 3.8 mph 8.1 mph 51 % 0.00 in
23:30 31.8 °F 15.7 °F 30.25 in WSW 2.8 mph 8.1 mph 51 % 0.00 in
23:35 31.9 °F 15.8 °F 30.25 in WSW 0.6 mph 3.5 mph 51 % 0.00 in
23:40 31.9 °F 15.8 °F 30.24 in SSW 1.5 mph 3.5 mph 51 % 0.00 in
23:45 31.9 °F 15.8 °F 30.24 in Calm   1.2 mph 51 % 0.00 in
23:50 31.9 °F 15.3 °F 30.23 in WSW 1.2 mph 4.6 mph 50 % 0.00 in
23:55 31.9 °F 15.3 °F 30.24 in SW 2.0 mph 4.0 mph 50 % 0.00 in
Crab Meadow Weather
Compliments of Weather Underground - 3 mb

Script developed by  Jim McMurry - jmcmurry@mwt.net Adapted for the template by  Wim van der Kuil - Leuven-Template.eu

Astronomy: Pluto is not a planet, because it does not have a fixed orbit and it's orbit comes in between the orbit of another planet (Neptune).